createdAt,value
2018-11-20T00:00:05.150Z,-0.56
2018-11-20T00:01:05.761Z,-0.50
2018-11-20T00:02:05.036Z,-0.56
2018-11-20T00:03:05.139Z,-0.50
2018-11-20T00:04:05.129Z,-0.50
2018-11-20T00:05:05.652Z,-0.50
2018-11-20T00:06:05.672Z,-0.50
2018-11-20T00:07:05.912Z,-0.50
2018-11-20T00:08:06.023Z,-0.50
2018-11-20T00:09:05.515Z,-0.50
2018-11-20T00:10:06.104Z,-0.50
2018-11-20T00:11:06.008Z,-0.50
2018-11-20T00:12:05.219Z,-0.50
2018-11-20T00:13:05.193Z,-0.50
2018-11-20T00:14:05.280Z,-0.50
2018-11-20T00:15:05.435Z,-0.50
2018-11-20T00:16:06.004Z,-0.50
2018-11-20T00:17:05.204Z,-0.50
2018-11-20T00:18:05.267Z,-0.56
2018-11-20T00:19:05.510Z,-0.56
2018-11-20T00:20:05.613Z,-0.56
2018-11-20T00:21:05.216Z,-0.50
2018-11-20T00:22:05.383Z,-0.50
2018-11-20T00:23:05.301Z,-0.50
2018-11-20T00:24:05.350Z,-0.50
2018-11-20T00:25:05.681Z,-0.50
2018-11-20T00:26:05.693Z,-0.50
2018-11-20T00:27:05.766Z,-0.50
2018-11-20T00:28:05.301Z,-0.50
2018-11-20T00:29:05.694Z,-0.50
2018-11-20T00:30:05.981Z,-0.50
2018-11-20T00:31:05.128Z,-0.44
2018-11-20T00:32:05.064Z,-0.50
2018-11-20T00:33:05.103Z,-0.50
2018-11-20T00:34:05.610Z,-0.50
2018-11-20T00:35:05.580Z,-0.50
2018-11-20T00:36:05.625Z,-0.44
2018-11-20T00:37:05.118Z,-0.44
2018-11-20T00:38:05.130Z,-0.44
2018-11-20T00:39:05.109Z,-0.44
2018-11-20T00:40:05.206Z,-0.44
2018-11-20T00:41:05.739Z,-0.38
2018-11-20T00:42:05.775Z,-0.44
2018-11-20T00:43:05.442Z,-0.38
2018-11-20T00:44:05.375Z,-0.44
2018-11-20T00:45:05.533Z,-0.44
2018-11-20T00:46:05.604Z,-0.38
2018-11-20T00:47:05.194Z,-0.38
2018-11-20T00:48:05.302Z,-0.38
2018-11-20T00:49:05.937Z,-0.38
2018-11-20T00:50:05.061Z,-0.38
2018-11-20T00:51:05.114Z,-0.44
2018-11-20T00:52:05.042Z,-0.38
2018-11-20T00:53:05.284Z,-0.38
2018-11-20T00:54:05.604Z,-0.38
2018-11-20T00:55:05.530Z,-0.44
2018-11-20T00:56:05.482Z,-0.38
2018-11-20T00:57:05.837Z,-0.38
2018-11-20T00:58:05.751Z,-0.38
2018-11-20T00:59:05.820Z,-0.38
2018-11-20T01:00:05.393Z,-0.38
2018-11-20T01:01:05.346Z,-0.38
2018-11-20T01:02:05.376Z,-0.31
2018-11-20T01:03:05.452Z,-0.31
2018-11-20T01:04:05.953Z,-0.31
2018-11-20T01:05:05.970Z,-0.31
2018-11-20T01:06:05.702Z,-0.31
2018-11-20T01:07:05.773Z,-0.31
2018-11-20T01:08:05.986Z,-0.25
2018-11-20T01:09:05.833Z,-0.25
2018-11-20T01:10:05.529Z,-0.25
2018-11-20T01:11:05.525Z,-0.25
2018-11-20T01:12:05.953Z,-0.25
2018-11-20T01:13:05.919Z,-0.25
2018-11-20T01:14:05.189Z,-0.25
2018-11-20T01:15:05.440Z,-0.25
2018-11-20T01:16:05.544Z,-0.19
2018-11-20T01:17:05.503Z,-0.19
2018-11-20T01:18:05.049Z,-0.19
2018-11-20T01:19:05.592Z,-0.19
2018-11-20T01:20:05.218Z,-0.25
2018-11-20T01:21:05.282Z,-0.25
2018-11-20T01:22:05.215Z,-0.19
2018-11-20T01:23:05.983Z,-0.25
2018-11-20T01:24:05.158Z,-0.19
2018-11-20T01:25:04.946Z,-0.19
2018-11-20T01:26:04.957Z,-0.19
2018-11-20T01:27:05.194Z,-0.19
2018-11-20T01:28:05.939Z,-0.25
2018-11-20T01:29:05.290Z,-0.19
2018-11-20T01:30:05.558Z,-0.19
2018-11-20T01:31:05.503Z,-0.19
2018-11-20T01:32:04.960Z,-0.19
2018-11-20T01:33:05.130Z,-0.19
2018-11-20T01:34:05.232Z,-0.19
2018-11-20T01:35:05.194Z,-0.19
2018-11-20T01:36:05.295Z,-0.19
2018-11-20T01:37:05.360Z,-0.19
2018-11-20T01:38:05.366Z,-0.19
2018-11-20T01:39:05.607Z,-0.19
2018-11-20T01:40:05.944Z,-0.12
2018-11-20T01:41:05.345Z,-0.12
2018-11-20T01:42:05.688Z,-0.12
2018-11-20T01:43:05.854Z,-0.12
2018-11-20T01:44:05.292Z,-0.19
2018-11-20T01:45:05.445Z,-0.19
2018-11-20T01:46:05.389Z,-0.19
2018-11-20T01:47:05.824Z,-0.19
2018-11-20T01:48:05.839Z,-0.19
2018-11-20T01:49:05.208Z,-0.19
2018-11-20T01:50:05.532Z,-0.19
2018-11-20T01:51:05.039Z,-0.19
2018-11-20T01:52:05.045Z,-0.19
2018-11-20T01:53:05.021Z,-0.19
2018-11-20T01:54:05.140Z,-0.12
2018-11-20T01:55:05.515Z,-0.12
2018-11-20T01:56:05.112Z,-0.12
2018-11-20T01:57:05.276Z,-0.12
2018-11-20T01:58:05.397Z,-0.12
2018-11-20T01:59:05.589Z,-0.12
2018-11-20T02:00:05.542Z,-0.12
2018-11-20T02:01:05.607Z,-0.12
2018-11-20T02:02:05.818Z,-0.12
2018-11-20T02:03:05.049Z,-0.12
2018-11-20T02:04:05.260Z,-0.12
2018-11-20T02:05:05.702Z,-0.06
2018-11-20T02:06:05.757Z,-0.06
2018-11-20T02:07:05.022Z,-0.12
2018-11-20T02:08:05.469Z,-0.06
2018-11-20T02:09:05.043Z,-0.06
2018-11-20T02:10:05.537Z,-0.06
2018-11-20T02:11:05.914Z,-0.06
2018-11-20T02:12:05.922Z,-0.06
2018-11-20T02:13:05.594Z,-0.06
2018-11-20T02:14:05.527Z,-0.06
2018-11-20T02:15:05.514Z,-0.06
2018-11-20T02:16:05.213Z,-0.06
2018-11-20T02:17:05.193Z,0.00
2018-11-20T02:18:05.301Z,0.00
2018-11-20T02:19:05.268Z,0.00
2018-11-20T02:20:04.970Z,0.00
2018-11-20T02:21:05.689Z,-0.06
2018-11-20T02:22:05.853Z,0.00
2018-11-20T02:23:05.191Z,0.00
2018-11-20T02:24:05.098Z,0.00
2018-11-20T02:25:05.380Z,-0.06
2018-11-20T02:26:05.602Z,0.00
2018-11-20T02:27:05.124Z,0.00
2018-11-20T02:28:05.053Z,0.00
2018-11-20T02:29:05.658Z,0.00
2018-11-20T02:30:05.765Z,0.00
2018-11-20T02:31:05.268Z,0.00
2018-11-20T02:32:06.675Z,0.00
2018-11-20T02:33:05.927Z,0.00
2018-11-20T02:34:04.950Z,0.00
2018-11-20T02:35:05.092Z,0.00
2018-11-20T02:36:05.667Z,-0.06
2018-11-20T02:37:05.980Z,-0.06
2018-11-20T02:38:04.948Z,-0.06
2018-11-20T02:39:05.112Z,-0.06
2018-11-20T02:40:05.591Z,-0.06
2018-11-20T02:41:05.760Z,-0.06
2018-11-20T02:42:06.017Z,-0.06
2018-11-20T02:43:05.985Z,-0.06
2018-11-20T02:44:05.943Z,-0.06
2018-11-20T02:45:05.999Z,-0.06
2018-11-20T02:46:06.012Z,-0.06
2018-11-20T02:47:05.995Z,-0.06
2018-11-20T02:48:05.377Z,-0.06
2018-11-20T02:49:05.362Z,-0.06
2018-11-20T02:50:05.528Z,0.00
2018-11-20T02:51:06.876Z,-0.06
2018-11-20T02:52:06.023Z,-0.06
2018-11-20T02:53:05.120Z,-0.06
2018-11-20T02:54:05.125Z,0.00
2018-11-20T02:55:04.959Z,0.00
2018-11-20T02:56:05.300Z,0.00
2018-11-20T02:57:05.206Z,-0.06
2018-11-20T02:58:05.280Z,-0.06
2018-11-20T02:59:05.750Z,-0.06
2018-11-20T03:00:05.445Z,-0.06
2018-11-20T03:01:06.057Z,-0.06
2018-11-20T03:02:05.041Z,0.00
2018-11-20T03:03:05.111Z,0.00
2018-11-20T03:04:05.115Z,0.00
2018-11-20T03:05:05.204Z,0.00
2018-11-20T03:06:05.433Z,0.06
2018-11-20T03:07:05.767Z,0.06
2018-11-20T03:08:05.906Z,0.06
2018-11-20T03:09:05.195Z,0.06
2018-11-20T03:10:05.290Z,0.00
2018-11-20T03:11:05.374Z,0.00
2018-11-20T03:12:05.353Z,0.00
2018-11-20T03:13:05.425Z,0.00
2018-11-20T03:14:05.616Z,0.00
2018-11-20T03:15:06.180Z,0.00
2018-11-20T03:16:05.145Z,0.00
2018-11-20T03:17:05.110Z,0.00
2018-11-20T03:18:05.629Z,0.00
2018-11-20T03:19:05.751Z,0.00
2018-11-20T03:20:05.867Z,0.00
2018-11-20T03:21:05.927Z,0.00
2018-11-20T03:22:05.849Z,0.00
2018-11-20T03:23:05.913Z,0.00
2018-11-20T03:24:05.132Z,0.00
2018-11-20T03:25:05.796Z,0.00
2018-11-20T03:26:05.956Z,0.00
2018-11-20T03:27:05.849Z,0.00
2018-11-20T03:28:05.135Z,0.00
2018-11-20T03:29:05.695Z,0.00
2018-11-20T03:30:05.835Z,0.06
2018-11-20T03:31:05.994Z,0.06
2018-11-20T03:32:05.158Z,0.00
2018-11-20T03:33:05.151Z,0.06
2018-11-20T03:34:05.137Z,0.06
2018-11-20T03:35:05.771Z,0.00
2018-11-20T03:36:05.208Z,0.00
2018-11-20T03:37:05.509Z,0.00
2018-11-20T03:38:05.535Z,0.00
2018-11-20T03:39:05.131Z,0.06
2018-11-20T03:40:05.428Z,0.06
2018-11-20T03:41:06.043Z,0.06
2018-11-20T03:42:05.475Z,0.00
2018-11-20T03:43:05.521Z,0.06
2018-11-20T03:44:05.433Z,0.06
2018-11-20T03:45:05.537Z,0.06
2018-11-20T03:46:05.688Z,0.00
2018-11-20T03:47:05.937Z,0.00
2018-11-20T03:48:05.281Z,0.00
2018-11-20T03:49:05.601Z,0.06
2018-11-20T03:50:05.603Z,0.06
2018-11-20T03:51:05.780Z,0.06
2018-11-20T03:52:05.693Z,0.06
2018-11-20T03:53:05.290Z,0.06
2018-11-20T03:54:05.315Z,0.06
2018-11-20T03:55:05.222Z,0.06
2018-11-20T03:56:05.427Z,0.06
2018-11-20T03:57:06.109Z,0.06
2018-11-20T03:58:05.165Z,0.06
2018-11-20T03:59:05.057Z,0.06
2018-11-20T04:00:05.122Z,0.12
2018-11-20T04:01:05.192Z,0.12
2018-11-20T04:02:05.700Z,0.12
2018-11-20T04:03:05.845Z,0.12
2018-11-20T04:04:05.788Z,0.12
2018-11-20T04:05:05.855Z,0.12
2018-11-20T04:06:05.939Z,0.12
2018-11-20T04:07:05.542Z,0.12
2018-11-20T04:08:05.711Z,0.06
2018-11-20T04:09:05.275Z,0.06
2018-11-20T04:10:05.853Z,0.12
2018-11-20T04:11:05.513Z,0.12
2018-11-20T04:12:05.130Z,0.12
2018-11-20T04:13:05.091Z,0.06
2018-11-20T04:14:05.295Z,0.12
2018-11-20T04:15:05.361Z,0.12
2018-11-20T04:16:05.391Z,0.12
2018-11-20T04:17:05.454Z,0.12
2018-11-20T04:18:05.632Z,0.12
2018-11-20T04:19:05.137Z,0.12
2018-11-20T04:20:04.955Z,0.12
2018-11-20T04:21:05.040Z,0.12
2018-11-20T04:22:05.144Z,0.12
2018-11-20T04:23:05.213Z,0.12
2018-11-20T04:24:05.279Z,0.12
2018-11-20T04:25:05.421Z,0.12
2018-11-20T04:26:05.549Z,0.12
2018-11-20T04:27:05.836Z,0.12
2018-11-20T04:28:05.462Z,0.06
2018-11-20T04:29:05.053Z,0.06
2018-11-20T04:30:05.209Z,0.12
2018-11-20T04:31:05.692Z,0.12
2018-11-20T04:32:05.784Z,0.12
2018-11-20T04:33:05.615Z,0.12
2018-11-20T04:34:05.947Z,0.12
2018-11-20T04:35:05.834Z,0.12
2018-11-20T04:36:05.938Z,0.12
2018-11-20T04:37:05.545Z,0.12
2018-11-20T04:38:05.466Z,0.12
2018-11-20T04:39:05.597Z,0.12
2018-11-20T04:40:05.867Z,0.12
2018-11-20T04:41:05.896Z,0.12
2018-11-20T04:42:05.136Z,0.12
2018-11-20T04:43:05.719Z,0.12
2018-11-20T04:44:05.731Z,0.19
2018-11-20T04:45:05.336Z,0.19
2018-11-20T04:46:05.446Z,0.12
2018-11-20T04:47:05.134Z,0.19
2018-11-20T04:48:05.065Z,0.19
2018-11-20T04:49:05.106Z,0.19
2018-11-20T04:50:05.787Z,0.19
2018-11-20T04:51:05.913Z,0.19
2018-11-20T04:52:05.280Z,0.19
2018-11-20T04:53:05.432Z,0.19
2018-11-20T04:54:05.463Z,0.19
2018-11-20T04:55:05.513Z,0.19
2018-11-20T04:56:05.928Z,0.19
2018-11-20T04:57:05.019Z,0.19
2018-11-20T04:58:05.690Z,0.19
2018-11-20T04:59:05.767Z,0.19
2018-11-20T05:00:05.774Z,0.19
2018-11-20T05:01:05.311Z,0.19
2018-11-20T05:02:05.341Z,0.19
2018-11-20T05:03:05.764Z,0.19
2018-11-20T05:04:05.787Z,0.19
2018-11-20T05:05:05.659Z,0.19
2018-11-20T05:06:05.764Z,0.19
2018-11-20T05:07:06.074Z,0.19
2018-11-20T05:08:05.059Z,0.19
2018-11-20T05:09:05.023Z,0.19
2018-11-20T05:10:05.049Z,0.19
2018-11-20T05:11:05.702Z,0.25
2018-11-20T05:12:05.696Z,0.19
2018-11-20T05:13:05.129Z,0.19
2018-11-20T05:14:05.761Z,0.19
2018-11-20T05:15:05.269Z,0.19
2018-11-20T05:16:05.297Z,0.19
2018-11-20T05:17:05.366Z,0.19
2018-11-20T05:18:05.758Z,0.19
2018-11-20T05:19:05.920Z,0.19
2018-11-20T05:20:06.018Z,0.19
2018-11-20T05:21:05.535Z,0.19
2018-11-20T05:22:05.454Z,0.19
2018-11-20T05:23:05.457Z,0.19
2018-11-20T05:24:05.606Z,0.19
2018-11-20T05:25:05.523Z,0.19
2018-11-20T05:26:05.611Z,0.19
2018-11-20T05:27:04.959Z,0.19
2018-11-20T05:28:05.587Z,0.19
2018-11-20T05:29:05.263Z,0.25
2018-11-20T05:30:05.855Z,0.25
2018-11-20T05:31:05.391Z,0.25
2018-11-20T05:32:05.876Z,0.25
2018-11-20T05:33:05.771Z,0.25
2018-11-20T05:34:05.933Z,0.19
2018-11-20T05:35:05.442Z,0.25
2018-11-20T05:36:05.384Z,0.19
2018-11-20T05:37:06.012Z,0.19
2018-11-20T05:38:05.379Z,0.19
2018-11-20T05:39:06.315Z,0.19
2018-11-20T05:40:05.630Z,0.19
2018-11-20T05:41:05.927Z,0.19
2018-11-20T05:42:06.027Z,0.19
2018-11-20T05:43:05.915Z,0.19
2018-11-20T05:44:06.020Z,0.19
2018-11-20T05:45:06.006Z,0.19
2018-11-20T05:46:05.351Z,0.19
2018-11-20T05:47:05.598Z,0.19
2018-11-20T05:48:05.117Z,0.19
2018-11-20T05:49:05.296Z,0.19
2018-11-20T05:50:05.535Z,0.19
2018-11-20T05:51:05.673Z,0.19
2018-11-20T05:52:05.602Z,0.19
2018-11-20T05:53:05.918Z,0.19
2018-11-20T05:54:06.028Z,0.19
2018-11-20T05:55:05.299Z,0.19
2018-11-20T05:56:05.482Z,0.19
2018-11-20T05:57:05.514Z,0.19
2018-11-20T05:58:05.996Z,0.19
2018-11-20T05:59:05.378Z,0.25
2018-11-20T06:00:05.945Z,0.19
2018-11-20T06:01:06.014Z,0.19
2018-11-20T06:02:06.112Z,0.19
2018-11-20T06:03:05.120Z,0.19
2018-11-20T06:04:05.136Z,0.19
2018-11-20T06:05:05.753Z,0.25
2018-11-20T06:06:06.036Z,0.25
2018-11-20T06:07:05.034Z,0.25
2018-11-20T06:08:05.125Z,0.25
2018-11-20T06:09:05.857Z,0.25
2018-11-20T06:10:05.952Z,0.25
2018-11-20T06:11:05.399Z,0.19
2018-11-20T06:12:05.786Z,0.19
2018-11-20T06:13:05.668Z,0.19
2018-11-20T06:14:06.598Z,0.25
2018-11-20T06:15:05.676Z,0.25
2018-11-20T06:16:05.797Z,0.25
2018-11-20T06:17:05.767Z,0.25
2018-11-20T06:18:05.125Z,0.25
2018-11-20T06:19:05.466Z,0.31
2018-11-20T06:20:05.690Z,0.31
2018-11-20T06:21:05.297Z,0.31
2018-11-20T06:22:05.427Z,0.31
2018-11-20T06:23:05.376Z,0.31
2018-11-20T06:24:05.625Z,0.25
2018-11-20T06:25:05.615Z,0.31
2018-11-20T06:26:05.758Z,0.31
2018-11-20T06:27:06.088Z,0.31
2018-11-20T06:28:05.033Z,0.31
2018-11-20T06:29:05.233Z,0.31
2018-11-20T06:30:05.394Z,0.38
2018-11-20T06:31:06.251Z,0.31
2018-11-20T06:32:05.549Z,0.38
2018-11-20T06:33:05.376Z,0.38
2018-11-20T06:34:05.619Z,0.38
2018-11-20T06:35:06.124Z,0.38
2018-11-20T06:36:05.381Z,0.38
2018-11-20T06:37:05.460Z,0.38
2018-11-20T06:38:05.456Z,0.38
2018-11-20T06:39:05.920Z,0.38
2018-11-20T06:40:05.537Z,0.31
2018-11-20T06:41:05.593Z,0.31
2018-11-20T06:42:05.935Z,0.31
2018-11-20T06:43:05.831Z,0.31
2018-11-20T06:44:05.876Z,0.38
2018-11-20T06:45:05.283Z,0.38
2018-11-20T06:46:05.476Z,0.31
2018-11-20T06:47:05.513Z,0.38
2018-11-20T06:48:05.700Z,0.38
2018-11-20T06:49:05.182Z,0.38
2018-11-20T06:50:05.672Z,0.38
2018-11-20T06:51:05.956Z,0.38
2018-11-20T06:52:05.143Z,0.38
2018-11-20T06:53:05.318Z,0.38
2018-11-20T06:54:05.789Z,0.38
2018-11-20T06:55:05.700Z,0.38
2018-11-20T06:56:05.940Z,0.38
2018-11-20T06:57:05.520Z,0.44
2018-11-20T06:58:05.388Z,0.44
2018-11-20T06:59:05.681Z,0.44
2018-11-20T07:00:05.699Z,0.44
2018-11-20T07:01:05.837Z,0.44
2018-11-20T07:02:05.128Z,0.44
2018-11-20T07:03:05.770Z,0.44
2018-11-20T07:04:06.024Z,0.44
2018-11-20T07:05:05.899Z,0.44
2018-11-20T07:06:05.367Z,0.44
2018-11-20T07:07:05.962Z,0.44
2018-11-20T07:08:05.668Z,0.44
2018-11-20T07:09:05.314Z,0.44
2018-11-20T07:10:05.544Z,0.44
2018-11-20T07:11:05.604Z,0.44
2018-11-20T07:12:05.772Z,0.44
2018-11-20T07:13:05.259Z,0.50
2018-11-20T07:14:05.350Z,0.50
2018-11-20T07:15:05.660Z,0.50
2018-11-20T07:16:06.367Z,0.50
2018-11-20T07:17:05.124Z,0.50
2018-11-20T07:18:05.942Z,0.50
2018-11-20T07:19:05.920Z,0.50
2018-11-20T07:20:05.994Z,0.50
2018-11-20T07:21:05.023Z,0.50
2018-11-20T07:22:05.378Z,0.50
2018-11-20T07:23:05.512Z,0.50
2018-11-20T07:24:05.703Z,0.50
2018-11-20T07:25:05.771Z,0.50
2018-11-20T07:26:05.893Z,0.50
2018-11-20T07:27:05.826Z,0.50
2018-11-20T07:28:05.350Z,0.50
2018-11-20T07:29:05.592Z,0.56
2018-11-20T07:30:05.955Z,0.56
2018-11-20T07:31:05.173Z,0.56
2018-11-20T07:32:05.297Z,0.56
2018-11-20T07:33:05.685Z,0.56
2018-11-20T07:34:05.753Z,0.56
2018-11-20T07:35:05.910Z,0.62
2018-11-20T07:36:05.394Z,0.62
2018-11-20T07:37:05.832Z,0.62
2018-11-20T07:38:05.524Z,0.62
2018-11-20T07:39:05.838Z,0.62
2018-11-20T07:40:05.940Z,0.62
2018-11-20T07:41:05.549Z,0.62
2018-11-20T07:42:05.488Z,0.62
2018-11-20T07:43:05.354Z,0.69
2018-11-20T07:44:05.114Z,0.69
2018-11-20T07:45:05.350Z,0.62
2018-11-20T07:46:05.476Z,0.62
2018-11-20T07:47:05.520Z,0.62
2018-11-20T07:48:05.928Z,0.62
2018-11-20T07:49:05.533Z,0.62
2018-11-20T07:50:05.541Z,0.62
2018-11-20T07:51:05.539Z,0.62
2018-11-20T07:52:05.702Z,0.62
2018-11-20T07:53:05.584Z,0.62
2018-11-20T07:54:05.313Z,0.69
2018-11-20T07:55:05.260Z,0.69
2018-11-20T07:56:06.152Z,0.69
2018-11-20T07:57:05.052Z,0.69
2018-11-20T07:58:05.161Z,0.69
2018-11-20T07:59:05.556Z,0.69
2018-11-20T08:00:05.618Z,0.69
2018-11-20T08:01:05.950Z,0.69
2018-11-20T08:02:05.241Z,0.69
2018-11-20T08:03:05.505Z,0.75
2018-11-20T08:04:05.348Z,0.69
2018-11-20T08:05:05.701Z,0.69
2018-11-20T08:06:05.677Z,0.75
2018-11-20T08:07:05.925Z,0.75
2018-11-20T08:08:05.926Z,0.75
2018-11-20T08:09:05.224Z,0.81
2018-11-20T08:10:05.851Z,0.75
2018-11-20T08:11:05.990Z,0.75
2018-11-20T08:12:05.345Z,0.75
2018-11-20T08:13:06.668Z,0.81
2018-11-20T08:14:06.036Z,0.81
2018-11-20T08:15:06.092Z,0.81
2018-11-20T08:16:06.089Z,0.81
2018-11-20T08:17:05.581Z,0.81
2018-11-20T08:18:05.601Z,0.81
2018-11-20T08:19:05.828Z,0.81
2018-11-20T08:20:05.253Z,0.88
2018-11-20T08:21:05.196Z,0.88
2018-11-20T08:22:05.765Z,0.88
2018-11-20T08:23:05.922Z,0.88
2018-11-20T08:24:05.947Z,0.88
2018-11-20T08:25:05.943Z,0.88
2018-11-20T08:26:05.490Z,0.88
2018-11-20T08:27:05.925Z,0.94
2018-11-20T08:28:05.921Z,0.94
2018-11-20T08:29:05.126Z,0.94
2018-11-20T08:30:05.107Z,0.94
2018-11-20T08:31:05.425Z,0.94
2018-11-20T08:32:05.792Z,0.94
2018-11-20T08:33:05.310Z,0.94
2018-11-20T08:34:05.778Z,0.94
2018-11-20T08:35:06.096Z,1.00
2018-11-20T08:36:05.750Z,1.00
2018-11-20T08:37:05.103Z,1.00
2018-11-20T08:38:05.298Z,1.00
2018-11-20T08:39:05.269Z,0.94
2018-11-20T08:40:05.289Z,0.94
2018-11-20T08:41:05.678Z,0.94
2018-11-20T08:42:05.370Z,0.94
2018-11-20T08:43:05.882Z,0.94
2018-11-20T08:44:05.055Z,0.94
2018-11-20T08:45:05.108Z,0.94
2018-11-20T08:46:05.223Z,0.94
2018-11-20T08:47:05.204Z,0.94
2018-11-20T08:48:05.294Z,0.94
2018-11-20T08:49:05.828Z,1.00
2018-11-20T08:50:05.879Z,1.00
2018-11-20T08:51:05.748Z,1.00
2018-11-20T08:52:05.856Z,1.00
2018-11-20T08:53:05.121Z,1.00
2018-11-20T08:54:05.119Z,1.00
2018-11-20T08:55:05.215Z,1.00
2018-11-20T08:56:05.471Z,1.00
2018-11-20T08:57:05.459Z,1.00
2018-11-20T08:58:05.436Z,1.00
2018-11-20T08:59:05.672Z,1.00
2018-11-20T09:00:05.768Z,1.06
2018-11-20T09:01:05.852Z,1.00
2018-11-20T09:02:06.081Z,1.06
2018-11-20T09:03:05.116Z,1.00
2018-11-20T09:04:05.222Z,1.06
2018-11-20T09:05:05.282Z,1.00
2018-11-20T09:06:05.680Z,1.00
2018-11-20T09:07:05.855Z,1.00
2018-11-20T09:08:05.069Z,1.06
2018-11-20T09:09:05.597Z,1.12
2018-11-20T09:10:05.610Z,1.12
2018-11-20T09:11:05.376Z,1.12
2018-11-20T09:12:05.558Z,1.06
2018-11-20T09:13:05.429Z,1.12
2018-11-20T09:14:05.131Z,1.12
2018-11-20T09:15:05.541Z,1.12
2018-11-20T09:16:05.864Z,1.12
2018-11-20T09:17:05.939Z,1.12
2018-11-20T09:18:05.265Z,1.12
2018-11-20T09:19:05.511Z,1.19
2018-11-20T09:20:05.731Z,1.19
2018-11-20T09:21:05.404Z,1.19
2018-11-20T09:22:05.532Z,1.19
2018-11-20T09:23:05.603Z,1.19
2018-11-20T09:24:05.427Z,1.12
2018-11-20T09:25:05.674Z,1.19
2018-11-20T09:26:05.327Z,1.19
2018-11-20T09:27:05.208Z,1.25
2018-11-20T09:28:05.478Z,1.25
2018-11-20T09:29:05.910Z,1.25
2018-11-20T09:30:05.931Z,1.19
2018-11-20T09:31:05.910Z,1.19
2018-11-20T09:32:05.057Z,1.25
2018-11-20T09:33:05.114Z,1.25
2018-11-20T09:34:05.614Z,1.25
2018-11-20T09:35:05.217Z,1.25
2018-11-20T09:36:05.543Z,1.25
2018-11-20T09:37:05.613Z,1.25
2018-11-20T09:38:05.774Z,1.25
2018-11-20T09:39:05.773Z,1.31
2018-11-20T09:40:05.116Z,1.25
2018-11-20T09:41:05.274Z,1.25
2018-11-20T09:42:05.454Z,1.31
2018-11-20T09:43:05.860Z,1.25
2018-11-20T09:44:05.930Z,1.31
2018-11-20T09:45:05.990Z,1.25
2018-11-20T09:46:05.145Z,1.31
2018-11-20T09:47:05.313Z,1.31
2018-11-20T09:48:05.628Z,1.31
2018-11-20T09:49:05.038Z,1.31
2018-11-20T09:50:05.783Z,1.31
2018-11-20T09:51:06.101Z,1.31
2018-11-20T09:52:05.271Z,1.25
2018-11-20T09:53:05.108Z,1.25
2018-11-20T09:54:05.540Z,1.31
2018-11-20T09:55:05.206Z,1.31
2018-11-20T09:56:05.228Z,1.31
2018-11-20T09:57:05.134Z,1.38
2018-11-20T09:58:05.379Z,1.31
2018-11-20T09:59:05.563Z,1.38
2018-11-20T10:00:05.267Z,1.38
2018-11-20T10:01:05.450Z,1.38
2018-11-20T10:02:05.609Z,1.38
2018-11-20T10:03:05.111Z,1.38
2018-11-20T10:04:05.026Z,1.38
2018-11-20T10:05:05.212Z,1.38
2018-11-20T10:06:05.346Z,1.38
2018-11-20T10:07:05.837Z,1.31
2018-11-20T10:08:05.048Z,1.31
2018-11-20T10:09:05.469Z,1.38
2018-11-20T10:10:05.145Z,1.31
2018-11-20T10:11:05.616Z,1.38
2018-11-20T10:12:05.857Z,1.38
2018-11-20T10:13:05.839Z,1.38
2018-11-20T10:14:05.984Z,1.44
2018-11-20T10:15:05.490Z,1.38
2018-11-20T10:16:05.789Z,1.38
2018-11-20T10:17:05.935Z,1.44
2018-11-20T10:18:05.934Z,1.44
2018-11-20T10:19:06.088Z,1.44
2018-11-20T10:20:06.015Z,1.44
2018-11-20T10:21:05.137Z,1.44
2018-11-20T10:22:05.150Z,1.44
2018-11-20T10:23:05.611Z,1.38
2018-11-20T10:24:05.693Z,1.38
2018-11-20T10:25:05.750Z,1.38
2018-11-20T10:26:05.317Z,1.44
2018-11-20T10:27:06.289Z,1.44
2018-11-20T10:28:05.833Z,1.44
2018-11-20T10:29:05.446Z,1.44
2018-11-20T10:30:05.058Z,1.44
2018-11-20T10:31:06.093Z,1.44
2018-11-20T10:32:05.368Z,1.44
2018-11-20T10:33:05.422Z,1.44
2018-11-20T10:34:05.931Z,1.44
2018-11-20T10:35:05.537Z,1.44
2018-11-20T10:36:05.620Z,1.50
2018-11-20T10:37:05.042Z,1.50
2018-11-20T10:38:05.138Z,1.50
2018-11-20T10:39:05.596Z,1.50
2018-11-20T10:40:05.571Z,1.50
2018-11-20T10:41:05.921Z,1.50
2018-11-20T10:42:05.148Z,1.50
2018-11-20T10:43:05.291Z,1.50
2018-11-20T10:44:05.700Z,1.44
2018-11-20T10:45:05.060Z,1.44
2018-11-20T10:46:05.221Z,1.44
2018-11-20T10:47:05.832Z,1.44
2018-11-20T10:48:10.237Z,1.44
2018-11-20T10:49:05.358Z,1.44
2018-11-20T10:50:05.261Z,1.44
2018-11-20T10:51:05.444Z,1.44
2018-11-20T10:52:05.139Z,1.44
2018-11-20T10:53:05.213Z,1.44
2018-11-20T10:54:05.311Z,1.44
2018-11-20T10:55:05.214Z,1.44
2018-11-20T10:56:05.443Z,1.38
2018-11-20T10:57:05.717Z,1.44
2018-11-20T10:58:05.929Z,1.44
2018-11-20T10:59:05.537Z,1.44
2018-11-20T11:00:05.791Z,1.44
2018-11-20T11:01:05.855Z,1.44
2018-11-20T11:02:06.014Z,1.44
2018-11-20T11:03:05.371Z,1.44
2018-11-20T11:04:05.412Z,1.44
2018-11-20T11:05:05.469Z,1.44
2018-11-20T11:06:05.367Z,1.44
2018-11-20T11:07:06.193Z,1.38
2018-11-20T11:08:05.360Z,1.44
2018-11-20T11:09:05.713Z,1.44
2018-11-20T11:10:05.767Z,1.44
2018-11-20T11:11:05.385Z,1.44
2018-11-20T11:12:05.751Z,1.44
2018-11-20T11:13:05.504Z,1.44
2018-11-20T11:14:04.950Z,1.50
2018-11-20T11:15:05.381Z,1.44
2018-11-20T11:16:05.388Z,1.50
2018-11-20T11:17:05.268Z,1.44
2018-11-20T11:18:05.347Z,1.44
2018-11-20T11:19:05.604Z,1.44
2018-11-20T11:20:05.541Z,1.44
2018-11-20T11:21:05.512Z,1.38
2018-11-20T11:22:05.827Z,1.44
2018-11-20T11:23:05.924Z,1.44
2018-11-20T11:24:06.122Z,1.44
2018-11-20T11:25:05.058Z,1.44
2018-11-20T11:26:05.213Z,1.38
2018-11-20T11:27:05.265Z,1.31
2018-11-20T11:28:05.366Z,1.31
2018-11-20T11:29:05.560Z,1.31
2018-11-20T11:30:05.660Z,1.25
2018-11-20T11:31:05.624Z,1.31
2018-11-20T11:32:05.884Z,1.25
2018-11-20T11:33:06.005Z,1.25
2018-11-20T11:34:06.112Z,1.25
2018-11-20T11:35:06.143Z,1.25
2018-11-20T11:36:05.228Z,1.25
2018-11-20T11:37:05.196Z,1.19
2018-11-20T11:38:05.448Z,1.19
2018-11-20T11:39:05.188Z,1.25
2018-11-20T11:40:05.774Z,1.25
2018-11-20T11:41:05.822Z,1.25
2018-11-20T11:42:05.352Z,1.25
2018-11-20T11:43:05.602Z,1.25
2018-11-20T11:44:05.527Z,1.25
2018-11-20T11:45:05.840Z,1.25
2018-11-20T11:46:05.940Z,1.19
2018-11-20T11:47:05.266Z,1.19
2018-11-20T11:48:05.837Z,1.19
2018-11-20T11:49:05.134Z,1.19
2018-11-20T11:50:05.137Z,1.19
2018-11-20T11:51:05.104Z,1.12
2018-11-20T11:52:05.162Z,1.12
2018-11-20T11:53:05.585Z,1.12
2018-11-20T11:54:05.611Z,1.12
2018-11-20T11:55:05.159Z,1.12
2018-11-20T11:56:05.216Z,1.12
2018-11-20T11:57:05.213Z,1.12
2018-11-20T11:58:05.274Z,1.12
2018-11-20T11:59:05.445Z,1.12
2018-11-20T12:00:05.624Z,1.06
2018-11-20T12:01:05.689Z,1.06
2018-11-20T12:05:05.654Z,1.06
2018-11-20T12:06:05.698Z,1.06
2018-11-20T12:07:05.756Z,1.00
2018-11-20T12:08:05.766Z,1.00
2018-11-20T12:09:05.911Z,1.00
2018-11-20T12:10:05.838Z,1.00
2018-11-20T12:11:05.179Z,1.00
2018-11-20T12:12:05.786Z,1.06
2018-11-20T12:13:05.675Z,1.00
2018-11-20T12:14:05.761Z,1.00
2018-11-20T12:15:05.117Z,1.00
2018-11-20T12:16:05.213Z,1.00
2018-11-20T12:17:05.177Z,1.00
2018-11-20T12:18:05.691Z,1.00
2018-11-20T12:19:05.762Z,1.00
2018-11-20T12:20:05.951Z,1.00
2018-11-20T12:21:05.823Z,1.00
2018-11-20T12:22:05.867Z,1.00
2018-11-20T12:23:05.234Z,1.00
2018-11-20T12:24:05.349Z,1.00
2018-11-20T12:25:05.509Z,0.94
2018-11-20T12:26:05.103Z,0.94
2018-11-20T12:27:05.368Z,0.94
2018-11-20T12:28:05.545Z,0.94
2018-11-20T12:29:06.407Z,0.94
2018-11-20T12:30:06.668Z,1.00
2018-11-20T12:31:05.181Z,1.00
2018-11-20T12:32:06.366Z,1.00
2018-11-20T12:33:05.683Z,1.00
2018-11-20T12:34:05.843Z,1.00
2018-11-20T12:35:05.127Z,1.06
2018-11-20T12:36:05.222Z,1.06
2018-11-20T12:37:06.444Z,1.06
2018-11-20T12:38:06.021Z,1.06
2018-11-20T12:39:04.991Z,1.06
2018-11-20T12:40:05.374Z,1.06
2018-11-20T12:41:07.343Z,1.12
2018-11-20T12:42:05.749Z,1.06
2018-11-20T12:43:05.984Z,1.06
2018-11-20T12:44:06.127Z,1.06
2018-11-20T12:45:05.516Z,1.06
2018-11-20T12:46:05.636Z,1.06
2018-11-20T12:47:09.071Z,1.06
2018-11-20T12:48:05.355Z,1.06
2018-11-20T12:49:05.536Z,1.00
2018-11-20T12:50:05.868Z,1.00
2018-11-20T12:51:07.691Z,1.06
2018-11-20T12:52:05.887Z,1.06
2018-11-20T12:53:05.445Z,1.12
2018-11-20T12:54:06.040Z,1.12
2018-11-20T12:55:05.039Z,1.06
2018-11-20T12:56:05.532Z,1.06
2018-11-20T12:57:05.135Z,1.06
2018-11-20T12:58:05.380Z,1.06
2018-11-20T12:59:05.463Z,1.06
2018-11-20T13:00:05.696Z,1.06
2018-11-20T13:01:05.759Z,1.06
2018-11-20T13:02:05.776Z,1.06
2018-11-20T13:03:05.364Z,1.06
2018-11-20T13:04:05.448Z,1.06
2018-11-20T13:05:05.274Z,1.06
2018-11-20T13:06:05.686Z,1.06
2018-11-20T13:07:05.909Z,1.12
2018-11-20T13:08:05.135Z,1.12
2018-11-20T13:09:05.905Z,1.12
2018-11-20T13:10:05.504Z,1.12
2018-11-20T13:11:05.845Z,1.12
2018-11-20T13:12:05.861Z,1.12
2018-11-20T13:13:05.763Z,1.12
2018-11-20T13:14:06.017Z,1.12
2018-11-20T13:15:05.438Z,1.19
2018-11-20T13:16:05.342Z,1.19